sensor_id;sensor_type;location;lat;lon;timestamp;P1;durP1;ratioP1;P2;durP2;ratioP2
73852;SDS011;62191;51.548;5.688;2023-01-19T00:05:43;6.90;;;4.20;;
73852;SDS011;62191;51.548;5.688;2023-01-19T00:08:11;3.77;;;3.37;;
73852;SDS011;62191;51.548;5.688;2023-01-19T00:10:45;3.10;;;2.10;;
73852;SDS011;62191;51.548;5.688;2023-01-19T00:13:15;4.65;;;3.00;;
73852;SDS011;62191;51.548;5.688;2023-01-19T00:15:43;4.50;;;3.57;;
73852;SDS011;62191;51.548;5.688;2023-01-19T00:18:10;4.63;;;2.87;;
73852;SDS011;62191;51.548;5.688;2023-01-19T00:20:38;4.03;;;2.50;;
73852;SDS011;62191;51.548;5.688;2023-01-19T00:23:05;4.80;;;3.67;;
73852;SDS011;62191;51.548;5.688;2023-01-19T00:25:34;5.63;;;3.63;;
73852;SDS011;62191;51.548;5.688;2023-01-19T00:28:03;3.27;;;2.60;;
73852;SDS011;62191;51.548;5.688;2023-01-19T00:40:17;4.90;;;3.50;;
73852;SDS011;62191;51.548;5.688;2023-01-19T00:42:44;9.33;;;3.87;;
73852;SDS011;62191;51.548;5.688;2023-01-19T00:45:14;5.53;;;3.93;;
73852;SDS011;62191;51.548;5.688;2023-01-19T00:47:44;3.10;;;2.87;;
73852;SDS011;62191;51.548;5.688;2023-01-19T00:50:14;6.10;;;3.63;;
73852;SDS011;62191;51.548;5.688;2023-01-19T00:52:42;3.97;;;2.43;;
73852;SDS011;62191;51.548;5.688;2023-01-19T00:55:12;5.03;;;4.33;;
73852;SDS011;62191;51.548;5.688;2023-01-19T00:57:39;5.03;;;2.90;;
73852;SDS011;62191;51.548;5.688;2023-01-19T01:00:11;4.50;;;2.97;;
73852;SDS011;62191;51.548;5.688;2023-01-19T01:02:40;4.03;;;3.50;;
73852;SDS011;62191;51.548;5.688;2023-01-19T01:05:08;4.23;;;2.83;;
73852;SDS011;62191;51.548;5.688;2023-01-19T01:07:36;6.30;;;4.37;;
73852;SDS011;62191;51.548;5.688;2023-01-19T01:10:09;2.60;;;2.40;;
73852;SDS011;62191;51.548;5.688;2023-01-19T01:12:38;5.03;;;3.47;;
73852;SDS011;62191;51.548;5.688;2023-01-19T01:15:06;5.93;;;4.30;;
73852;SDS011;62191;51.548;5.688;2023-01-19T01:17:36;4.70;;;3.20;;
73852;SDS011;62191;51.548;5.688;2023-01-19T01:20:05;5.30;;;4.30;;
73852;SDS011;62191;51.548;5.688;2023-01-19T01:22:33;6.57;;;3.77;;
73852;SDS011;62191;51.548;5.688;2023-01-19T01:25:00;3.87;;;3.07;;
73852;SDS011;62191;51.548;5.688;2023-01-19T01:27:27;2.63;;;2.43;;
73852;SDS011;62191;51.548;5.688;2023-01-19T01:29:54;5.70;;;3.70;;
73852;SDS011;62191;51.548;5.688;2023-01-19T01:32:22;4.03;;;2.90;;
73852;SDS011;62191;51.548;5.688;2023-01-19T01:34:49;4.37;;;3.13;;
73852;SDS011;62191;51.548;5.688;2023-01-19T01:37:16;6.43;;;4.37;;
73852;SDS011;62191;51.548;5.688;2023-01-19T01:39:44;3.67;;;3.20;;
73852;SDS011;62191;51.548;5.688;2023-01-19T01:42:17;5.77;;;3.73;;
73852;SDS011;62191;51.548;5.688;2023-01-19T01:44:47;4.08;;;2.60;;
73852;SDS011;62191;51.548;5.688;2023-01-19T01:47:30;3.70;;;3.13;;
73852;SDS011;62191;51.548;5.688;2023-01-19T01:50:10;5.97;;;4.27;;
73852;SDS011;62191;51.548;5.688;2023-01-19T01:52:44;5.03;;;3.43;;
73852;SDS011;62191;51.548;5.688;2023-01-19T01:55:12;3.77;;;3.17;;
73852;SDS011;62191;51.548;5.688;2023-01-19T01:57:41;2.73;;;2.53;;
73852;SDS011;62191;51.548;5.688;2023-01-19T02:00:11;5.00;;;2.90;;
73852;SDS011;62191;51.548;5.688;2023-01-19T02:02:41;4.73;;;3.03;;
73852;SDS011;62191;51.548;5.688;2023-01-19T02:05:20;4.87;;;3.47;;
73852;SDS011;62191;51.548;5.688;2023-01-19T02:08:02;3.53;;;2.77;;
73852;SDS011;62191;51.548;5.688;2023-01-19T02:10:59;3.97;;;3.67;;
73852;SDS011;62191;51.548;5.688;2023-01-19T02:18:39;3.10;;;2.60;;
73852;SDS011;62191;51.548;5.688;2023-01-19T02:23:49;3.00;;;2.57;;
73852;SDS011;62191;51.548;5.688;2023-01-19T02:45:58;2.53;;;2.33;;
73852;SDS011;62191;51.548;5.688;2023-01-19T02:48:25;2.77;;;2.17;;
73852;SDS011;62191;51.548;5.688;2023-01-19T02:53:34;4.90;;;3.80;;
73852;SDS011;62191;51.548;5.688;2023-01-19T04:20:52;3.50;;;3.20;;
73852;SDS011;62191;51.548;5.688;2023-01-19T04:23:20;3.57;;;3.30;;
73852;SDS011;62191;51.548;5.688;2023-01-19T04:25:47;2.63;;;2.47;;
73852;SDS011;62191;51.548;5.688;2023-01-19T04:30:41;2.67;;;2.57;;
73852;SDS011;62191;51.548;5.688;2023-01-19T04:33:08;4.00;;;2.87;;
73852;SDS011;62191;51.548;5.688;2023-01-19T04:35:38;3.60;;;2.30;;
73852;SDS011;62191;51.548;5.688;2023-01-19T04:38:06;2.40;;;2.20;;
73852;SDS011;62191;51.548;5.688;2023-01-19T04:40:34;2.30;;;2.10;;
73852;SDS011;62191;51.548;5.688;2023-01-19T04:43:01;2.13;;;1.93;;
73852;SDS011;62191;51.548;5.688;2023-01-19T04:45:28;2.57;;;2.37;;
73852;SDS011;62191;51.548;5.688;2023-01-19T04:47:55;3.07;;;2.50;;
73852;SDS011;62191;51.548;5.688;2023-01-19T04:50:23;2.57;;;2.37;;
73852;SDS011;62191;51.548;5.688;2023-01-19T04:52:50;1.80;;;1.70;;
73852;SDS011;62191;51.548;5.688;2023-01-19T04:55:17;1.53;;;1.43;;
73852;SDS011;62191;51.548;5.688;2023-01-19T04:57:45;1.77;;;1.67;;
73852;SDS011;62191;51.548;5.688;2023-01-19T05:00:12;1.87;;;1.77;;
73852;SDS011;62191;51.548;5.688;2023-01-19T05:02:40;1.20;;;1.20;;
73852;SDS011;62191;51.548;5.688;2023-01-19T05:05:09;1.30;;;1.20;;
73852;SDS011;62191;51.548;5.688;2023-01-19T05:07:37;1.97;;;1.87;;
73852;SDS011;62191;51.548;5.688;2023-01-19T05:10:05;1.50;;;1.40;;
73852;SDS011;62191;51.548;5.688;2023-01-19T05:12:32;1.57;;;1.47;;
73852;SDS011;62191;51.548;5.688;2023-01-19T05:15:00;1.83;;;1.73;;
73852;SDS011;62191;51.548;5.688;2023-01-19T05:17:27;1.50;;;1.40;;
73852;SDS011;62191;51.548;5.688;2023-01-19T05:19:55;1.43;;;1.33;;
73852;SDS011;62191;51.548;5.688;2023-01-19T05:22:22;1.77;;;1.67;;
73852;SDS011;62191;51.548;5.688;2023-01-19T05:24:49;1.83;;;1.60;;
73852;SDS011;62191;51.548;5.688;2023-01-19T05:27:17;1.60;;;1.50;;
73852;SDS011;62191;51.548;5.688;2023-01-19T05:29:44;1.33;;;1.30;;
73852;SDS011;62191;51.548;5.688;2023-01-19T05:32:11;1.93;;;1.70;;
73852;SDS011;62191;51.548;5.688;2023-01-19T05:34:39;1.57;;;1.47;;
73852;SDS011;62191;51.548;5.688;2023-01-19T05:37:06;1.53;;;1.43;;
73852;SDS011;62191;51.548;5.688;2023-01-19T05:39:33;1.97;;;1.87;;
73852;SDS011;62191;51.548;5.688;2023-01-19T05:42:01;1.77;;;1.67;;
73852;SDS011;62191;51.548;5.688;2023-01-19T05:44:28;1.30;;;1.30;;
73852;SDS011;62191;51.548;5.688;2023-01-19T05:46:55;1.67;;;1.57;;
73852;SDS011;62191;51.548;5.688;2023-01-19T05:49:23;1.90;;;1.70;;
73852;SDS011;62191;51.548;5.688;2023-01-19T05:51:50;2.03;;;1.80;;
73852;SDS011;62191;51.548;5.688;2023-01-19T05:54:17;2.07;;;1.97;;
73852;SDS011;62191;51.548;5.688;2023-01-19T05:56:44;1.87;;;1.77;;
73852;SDS011;62191;51.548;5.688;2023-01-19T05:59:12;2.70;;;2.50;;
73852;SDS011;62191;51.548;5.688;2023-01-19T06:04:06;2.17;;;1.97;;
73852;SDS011;62191;51.548;5.688;2023-01-19T06:06:33;2.77;;;2.10;;
73852;SDS011;62191;51.548;5.688;2023-01-19T06:09:01;2.57;;;2.37;;
73852;SDS011;62191;51.548;5.688;2023-01-19T06:11:28;1.93;;;1.60;;
73852;SDS011;62191;51.548;5.688;2023-01-19T06:13:55;3.87;;;2.93;;
73852;SDS011;62191;51.548;5.688;2023-01-19T06:16:22;2.37;;;2.17;;
73852;SDS011;62191;51.548;5.688;2023-01-19T06:18:50;2.40;;;2.20;;
73852;SDS011;62191;51.548;5.688;2023-01-19T06:21:18;3.13;;;2.30;;
73852;SDS011;62191;51.548;5.688;2023-01-19T06:23:45;2.63;;;2.43;;
73852;SDS011;62191;51.548;5.688;2023-01-19T06:26:12;3.70;;;2.87;;
73852;SDS011;62191;51.548;5.688;2023-01-19T06:28:39;2.50;;;2.30;;
73852;SDS011;62191;51.548;5.688;2023-01-19T06:31:07;2.17;;;1.97;;
73852;SDS011;62191;51.548;5.688;2023-01-19T06:33:34;3.53;;;2.70;;
73852;SDS011;62191;51.548;5.688;2023-01-19T06:36:01;4.37;;;2.60;;
73852;SDS011;62191;51.548;5.688;2023-01-19T06:38:29;5.67;;;3.03;;
73852;SDS011;62191;51.548;5.688;2023-01-19T06:40:57;2.75;;;2.50;;
73852;SDS011;62191;51.548;5.688;2023-01-19T06:43:26;2.77;;;2.47;;
73852;SDS011;62191;51.548;5.688;2023-01-19T06:45:55;5.27;;;3.07;;
73852;SDS011;62191;51.548;5.688;2023-01-19T06:48:22;2.20;;;2.00;;
73852;SDS011;62191;51.548;5.688;2023-01-19T06:50:50;2.57;;;2.40;;
73852;SDS011;62191;51.548;5.688;2023-01-19T06:53:17;2.97;;;2.77;;
73852;SDS011;62191;51.548;5.688;2023-01-19T06:55:46;3.40;;;3.10;;
73852;SDS011;62191;51.548;5.688;2023-01-19T06:58:14;2.45;;;2.25;;
73852;SDS011;62191;51.548;5.688;2023-01-19T07:15:22;10.27;;;4.47;;
73852;SDS011;62191;51.548;5.688;2023-01-19T07:17:49;5.80;;;4.30;;
73852;SDS011;62191;51.548;5.688;2023-01-19T07:20:17;5.13;;;4.63;;
73852;SDS011;62191;51.548;5.688;2023-01-19T07:28:25;7.90;;;4.83;;
73852;SDS011;62191;51.548;5.688;2023-01-19T07:30:53;6.27;;;4.27;;
73852;SDS011;62191;51.548;5.688;2023-01-19T07:33:21;6.00;;;5.40;;
73852;SDS011;62191;51.548;5.688;2023-01-19T07:35:50;6.60;;;4.33;;
73852;SDS011;62191;51.548;5.688;2023-01-19T07:38:18;8.50;;;5.13;;
73852;SDS011;62191;51.548;5.688;2023-01-19T07:40:45;5.97;;;4.97;;
73852;SDS011;62191;51.548;5.688;2023-01-19T07:43:13;5.33;;;4.23;;
73852;SDS011;62191;51.548;5.688;2023-01-19T07:45:40;5.47;;;4.30;;
73852;SDS011;62191;51.548;5.688;2023-01-19T07:48:09;5.43;;;4.67;;
73852;SDS011;62191;51.548;5.688;2023-01-19T07:50:36;5.53;;;4.60;;
73852;SDS011;62191;51.548;5.688;2023-01-19T07:53:04;6.33;;;5.70;;
73852;SDS011;62191;51.548;5.688;2023-01-19T07:55:32;7.73;;;5.27;;
73852;SDS011;62191;51.548;5.688;2023-01-19T07:58:00;4.20;;;3.90;;
73852;SDS011;62191;51.548;5.688;2023-01-19T08:00:29;6.23;;;4.57;;
73852;SDS011;62191;51.548;5.688;2023-01-19T08:02:58;11.80;;;5.27;;
73852;SDS011;62191;51.548;5.688;2023-01-19T08:05:26;3.93;;;3.53;;
73852;SDS011;62191;51.548;5.688;2023-01-19T08:07:57;6.83;;;4.83;;
73852;SDS011;62191;51.548;5.688;2023-01-19T08:10:25;7.10;;;5.47;;
73852;SDS011;62191;51.548;5.688;2023-01-19T08:12:53;5.57;;;4.30;;
73852;SDS011;62191;51.548;5.688;2023-01-19T08:15:21;5.00;;;4.17;;
73852;SDS011;62191;51.548;5.688;2023-01-19T08:18:01;5.93;;;4.73;;
73852;SDS011;62191;51.548;5.688;2023-01-19T08:20:25;4.30;;;3.93;;
73852;SDS011;62191;51.548;5.688;2023-01-19T08:22:54;5.70;;;4.57;;
73852;SDS011;62191;51.548;5.688;2023-01-19T08:25:26;6.27;;;4.50;;
73852;SDS011;62191;51.548;5.688;2023-01-19T08:28:00;9.13;;;5.40;;
73852;SDS011;62191;51.548;5.688;2023-01-19T08:30:28;9.83;;;5.43;;
73852;SDS011;62191;51.548;5.688;2023-01-19T08:32:57;4.97;;;4.37;;
73852;SDS011;62191;51.548;5.688;2023-01-19T08:35:42;5.15;;;3.85;;
73852;SDS011;62191;51.548;5.688;2023-01-19T08:38:11;7.80;;;4.63;;
73852;SDS011;62191;51.548;5.688;2023-01-19T08:40:39;5.83;;;4.70;;
73852;SDS011;62191;51.548;5.688;2023-01-19T08:43:10;6.17;;;5.10;;
73852;SDS011;62191;51.548;5.688;2023-01-19T08:45:40;6.57;;;5.10;;
73852;SDS011;62191;51.548;5.688;2023-01-19T08:48:10;8.60;;;5.97;;
73852;SDS011;62191;51.548;5.688;2023-01-19T08:50:38;7.83;;;7.00;;
73852;SDS011;62191;51.548;5.688;2023-01-19T08:53:06;8.60;;;4.93;;
73852;SDS011;62191;51.548;5.688;2023-01-19T08:55:34;7.30;;;4.57;;
73852;SDS011;62191;51.548;5.688;2023-01-19T08:58:02;9.80;;;7.93;;
73852;SDS011;62191;51.548;5.688;2023-01-19T09:00:30;7.33;;;4.53;;
73852;SDS011;62191;51.548;5.688;2023-01-19T09:03:02;8.40;;;6.17;;
73852;SDS011;62191;51.548;5.688;2023-01-19T09:05:35;12.23;;;6.97;;
73852;SDS011;62191;51.548;5.688;2023-01-19T09:08:06;8.03;;;3.93;;
73852;SDS011;62191;51.548;5.688;2023-01-19T09:10:35;9.53;;;5.07;;
73852;SDS011;62191;51.548;5.688;2023-01-19T09:13:04;8.73;;;5.93;;
73852;SDS011;62191;51.548;5.688;2023-01-19T09:15:41;8.07;;;4.77;;
73852;SDS011;62191;51.548;5.688;2023-01-19T09:18:05;9.07;;;4.93;;
73852;SDS011;62191;51.548;5.688;2023-01-19T09:20:34;8.60;;;4.87;;
73852;SDS011;62191;51.548;5.688;2023-01-19T09:23:03;6.83;;;5.63;;
73852;SDS011;62191;51.548;5.688;2023-01-19T09:25:31;11.63;;;5.93;;
73852;SDS011;62191;51.548;5.688;2023-01-19T09:27:58;6.37;;;4.57;;
73852;SDS011;62191;51.548;5.688;2023-01-19T09:30:26;9.87;;;4.67;;
73852;SDS011;62191;51.548;5.688;2023-01-19T09:32:54;7.20;;;4.60;;
73852;SDS011;62191;51.548;5.688;2023-01-19T09:35:21;6.53;;;5.00;;
73852;SDS011;62191;51.548;5.688;2023-01-19T09:37:50;6.57;;;5.43;;
73852;SDS011;62191;51.548;5.688;2023-01-19T09:40:18;14.63;;;5.30;;
73852;SDS011;62191;51.548;5.688;2023-01-19T09:42:49;7.77;;;5.93;;
73852;SDS011;62191;51.548;5.688;2023-01-19T09:45:28;11.27;;;5.33;;
73852;SDS011;62191;51.548;5.688;2023-01-19T09:47:56;6.30;;;4.87;;
73852;SDS011;62191;51.548;5.688;2023-01-19T09:50:30;7.73;;;5.43;;
73852;SDS011;62191;51.548;5.688;2023-01-19T09:53:08;3.97;;;3.57;;
73852;SDS011;62191;51.548;5.688;2023-01-19T09:55:36;13.67;;;4.73;;
73852;SDS011;62191;51.548;5.688;2023-01-19T09:58:08;10.87;;;6.97;;
73852;SDS011;62191;51.548;5.688;2023-01-19T10:00:52;10.10;;;4.50;;
73852;SDS011;62191;51.548;5.688;2023-01-19T10:03:16;11.10;;;4.87;;
73852;SDS011;62191;51.548;5.688;2023-01-19T10:05:48;7.37;;;3.93;;
73852;SDS011;62191;51.548;5.688;2023-01-19T10:10:55;6.23;;;4.80;;
73852;SDS011;62191;51.548;5.688;2023-01-19T10:13:24;10.50;;;6.73;;
73852;SDS011;62191;51.548;5.688;2023-01-19T10:18:40;7.30;;;4.47;;
73852;SDS011;62191;51.548;5.688;2023-01-19T10:21:27;9.67;;;5.90;;
73852;SDS011;62191;51.548;5.688;2023-01-19T10:24:17;7.33;;;4.70;;
73852;SDS011;62191;51.548;5.688;2023-01-19T10:26:50;9.47;;;5.60;;
73852;SDS011;62191;51.548;5.688;2023-01-19T10:32:13;7.10;;;4.40;;
73852;SDS011;62191;51.548;5.688;2023-01-19T10:34:42;3.83;;;3.40;;
73852;SDS011;62191;51.548;5.688;2023-01-19T10:37:24;5.93;;;4.60;;
73852;SDS011;62191;51.548;5.688;2023-01-19T10:39:53;8.33;;;4.53;;
73852;SDS011;62191;51.548;5.688;2023-01-19T10:42:22;6.33;;;4.80;;
73852;SDS011;62191;51.548;5.688;2023-01-19T10:44:51;4.63;;;3.60;;
73852;SDS011;62191;51.548;5.688;2023-01-19T10:47:19;6.90;;;5.37;;
73852;SDS011;62191;51.548;5.688;2023-01-19T10:49:48;8.07;;;4.63;;
73852;SDS011;62191;51.548;5.688;2023-01-19T10:52:19;7.53;;;6.73;;
73852;SDS011;62191;51.548;5.688;2023-01-19T10:57:28;5.33;;;3.37;;
73852;SDS011;62191;51.548;5.688;2023-01-19T10:59:57;7.97;;;4.27;;
73852;SDS011;62191;51.548;5.688;2023-01-19T11:04:55;7.17;;;4.73;;
73852;SDS011;62191;51.548;5.688;2023-01-19T11:07:29;6.77;;;4.03;;
73852;SDS011;62191;51.548;5.688;2023-01-19T11:15:41;7.50;;;3.90;;
73852;SDS011;62191;51.548;5.688;2023-01-19T11:21:06;4.53;;;4.00;;
73852;SDS011;62191;51.548;5.688;2023-01-19T11:23:55;3.93;;;3.20;;
73852;SDS011;62191;51.548;5.688;2023-01-19T11:26:33;7.63;;;5.93;;
73852;SDS011;62191;51.548;5.688;2023-01-19T11:31:49;5.43;;;4.93;;
73852;SDS011;62191;51.548;5.688;2023-01-19T11:34:21;12.77;;;5.10;;
73852;SDS011;62191;51.548;5.688;2023-01-19T11:37:03;4.13;;;3.27;;
73852;SDS011;62191;51.548;5.688;2023-01-19T11:39:44;6.33;;;3.47;;
73852;SDS011;62191;51.548;5.688;2023-01-19T11:42:11;6.87;;;4.17;;
73852;SDS011;62191;51.548;5.688;2023-01-19T11:44:43;6.07;;;3.67;;
73852;SDS011;62191;51.548;5.688;2023-01-19T11:47:24;8.50;;;4.47;;
73852;SDS011;62191;51.548;5.688;2023-01-19T11:52:43;7.87;;;4.00;;
73852;SDS011;62191;51.548;5.688;2023-01-19T11:57:57;5.13;;;3.60;;
73852;SDS011;62191;51.548;5.688;2023-01-19T12:00:26;8.70;;;5.67;;
73852;SDS011;62191;51.548;5.688;2023-01-19T12:03:13;5.77;;;4.53;;
73852;SDS011;62191;51.548;5.688;2023-01-19T12:05:44;5.63;;;3.87;;
73852;SDS011;62191;51.548;5.688;2023-01-19T12:08:19;5.67;;;3.30;;
73852;SDS011;62191;51.548;5.688;2023-01-19T12:10:48;7.03;;;3.73;;
73852;SDS011;62191;51.548;5.688;2023-01-19T12:13:25;5.93;;;4.80;;
73852;SDS011;62191;51.548;5.688;2023-01-19T12:15:54;7.00;;;3.87;;
73852;SDS011;62191;51.548;5.688;2023-01-19T12:18:31;4.33;;;3.67;;
73852;SDS011;62191;51.548;5.688;2023-01-19T12:21:07;4.83;;;3.07;;
73852;SDS011;62191;51.548;5.688;2023-01-19T12:26:25;4.70;;;3.57;;
73852;SDS011;62191;51.548;5.688;2023-01-19T12:29:12;3.67;;;2.53;;
73852;SDS011;62191;51.548;5.688;2023-01-19T12:31:44;5.50;;;2.92;;
73852;SDS011;62191;51.548;5.688;2023-01-19T12:36:56;7.93;;;3.90;;
73852;SDS011;62191;51.548;5.688;2023-01-19T12:39:30;4.60;;;3.13;;
73852;SDS011;62191;51.548;5.688;2023-01-19T12:42:18;4.87;;;3.27;;
73852;SDS011;62191;51.548;5.688;2023-01-19T12:44:38;5.70;;;4.13;;
73852;SDS011;62191;51.548;5.688;2023-01-19T12:49:44;4.30;;;3.03;;
73852;SDS011;62191;51.548;5.688;2023-01-19T12:54:55;6.03;;;3.30;;
73852;SDS011;62191;51.548;5.688;2023-01-19T13:02:57;3.97;;;2.80;;
73852;SDS011;62191;51.548;5.688;2023-01-19T13:13:41;3.00;;;2.63;;
73852;SDS011;62191;51.548;5.688;2023-01-19T13:18:55;3.60;;;2.67;;
73852;SDS011;62191;51.548;5.688;2023-01-19T13:21:37;3.70;;;3.00;;
73852;SDS011;62191;51.548;5.688;2023-01-19T13:24:12;5.47;;;3.23;;
73852;SDS011;62191;51.548;5.688;2023-01-19T13:31:51;4.97;;;3.37;;
73852;SDS011;62191;51.548;5.688;2023-01-19T13:34:21;7.07;;;3.77;;
73852;SDS011;62191;51.548;5.688;2023-01-19T13:36:51;11.13;;;2.90;;
73852;SDS011;62191;51.548;5.688;2023-01-19T13:39:22;4.27;;;3.57;;
73852;SDS011;62191;51.548;5.688;2023-01-19T13:41:50;5.87;;;3.30;;
73852;SDS011;62191;51.548;5.688;2023-01-19T13:44:27;6.60;;;4.57;;
73852;SDS011;62191;51.548;5.688;2023-01-19T13:46:55;4.83;;;2.97;;
73852;SDS011;62191;51.548;5.688;2023-01-19T13:52:10;9.90;;;4.17;;
73852;SDS011;62191;51.548;5.688;2023-01-19T13:54:48;3.83;;;2.87;;
73852;SDS011;62191;51.548;5.688;2023-01-19T13:57:37;2.73;;;2.53;;
73852;SDS011;62191;51.548;5.688;2023-01-19T14:02:40;3.37;;;2.67;;
73852;SDS011;62191;51.548;5.688;2023-01-19T14:05:23;8.87;;;5.40;;
73852;SDS011;62191;51.548;5.688;2023-01-19T14:08:01;8.30;;;5.03;;
73852;SDS011;62191;51.548;5.688;2023-01-19T14:10:40;5.53;;;3.40;;
73852;SDS011;62191;51.548;5.688;2023-01-19T14:15:51;4.00;;;2.90;;
73852;SDS011;62191;51.548;5.688;2023-01-19T14:20:56;4.65;;;3.92;;
73852;SDS011;62191;51.548;5.688;2023-01-19T14:29:24;6.23;;;4.13;;
73852;SDS011;62191;51.548;5.688;2023-01-19T14:45:24;6.72;;;4.12;;
73852;SDS011;62191;51.548;5.688;2023-01-19T14:48:18;4.43;;;3.30;;
73852;SDS011;62191;51.548;5.688;2023-01-19T14:50:47;4.23;;;3.33;;
73852;SDS011;62191;51.548;5.688;2023-01-19T14:53:19;5.13;;;3.47;;
73852;SDS011;62191;51.548;5.688;2023-01-19T14:56:07;7.33;;;3.57;;
73852;SDS011;62191;51.548;5.688;2023-01-19T14:58:23;7.10;;;3.03;;
73852;SDS011;62191;51.548;5.688;2023-01-19T15:00:50;7.13;;;4.97;;
73852;SDS011;62191;51.548;5.688;2023-01-19T15:03:22;6.07;;;4.00;;
73852;SDS011;62191;51.548;5.688;2023-01-19T15:05:50;7.13;;;3.83;;
73852;SDS011;62191;51.548;5.688;2023-01-19T15:08:19;5.77;;;3.50;;
73852;SDS011;62191;51.548;5.688;2023-01-19T15:10:48;4.80;;;3.53;;
73852;SDS011;62191;51.548;5.688;2023-01-19T15:13:21;5.37;;;3.07;;
73852;SDS011;62191;51.548;5.688;2023-01-19T15:15:45;11.47;;;5.33;;
73852;SDS011;62191;51.548;5.688;2023-01-19T15:18:14;4.67;;;3.67;;
73852;SDS011;62191;51.548;5.688;2023-01-19T15:20:43;4.87;;;3.20;;
73852;SDS011;62191;51.548;5.688;2023-01-19T15:23:10;6.50;;;3.37;;
73852;SDS011;62191;51.548;5.688;2023-01-19T15:25:38;7.40;;;3.70;;
73852;SDS011;62191;51.548;5.688;2023-01-19T15:28:17;10.87;;;3.93;;
73852;SDS011;62191;51.548;5.688;2023-01-19T15:30:42;5.43;;;3.33;;
73852;SDS011;62191;51.548;5.688;2023-01-19T15:33:11;5.13;;;3.00;;
73852;SDS011;62191;51.548;5.688;2023-01-19T15:35:46;3.97;;;2.97;;
73852;SDS011;62191;51.548;5.688;2023-01-19T15:38:13;7.80;;;3.53;;
73852;SDS011;62191;51.548;5.688;2023-01-19T15:40:40;11.80;;;4.13;;
73852;SDS011;62191;51.548;5.688;2023-01-19T15:43:10;5.53;;;4.47;;
73852;SDS011;62191;51.548;5.688;2023-01-19T15:45:40;5.10;;;3.57;;
73852;SDS011;62191;51.548;5.688;2023-01-19T15:48:08;4.27;;;3.27;;
73852;SDS011;62191;51.548;5.688;2023-01-19T15:50:42;5.63;;;4.63;;
73852;SDS011;62191;51.548;5.688;2023-01-19T15:53:06;5.57;;;2.60;;
73852;SDS011;62191;51.548;5.688;2023-01-19T15:55:47;5.03;;;3.17;;
73852;SDS011;62191;51.548;5.688;2023-01-19T15:58:17;6.53;;;4.57;;
73852;SDS011;62191;51.548;5.688;2023-01-19T16:00:45;5.40;;;4.00;;
73852;SDS011;62191;51.548;5.688;2023-01-19T16:03:20;2.63;;;2.30;;
73852;SDS011;62191;51.548;5.688;2023-01-19T16:05:47;6.47;;;3.67;;
73852;SDS011;62191;51.548;5.688;2023-01-19T16:08:15;4.07;;;2.80;;
73852;SDS011;62191;51.548;5.688;2023-01-19T16:10:43;6.57;;;3.13;;
73852;SDS011;62191;51.548;5.688;2023-01-19T16:13:10;8.33;;;4.40;;
73852;SDS011;62191;51.548;5.688;2023-01-19T16:15:38;5.03;;;2.70;;
73852;SDS011;62191;51.548;5.688;2023-01-19T16:18:06;4.87;;;4.07;;
73852;SDS011;62191;51.548;5.688;2023-01-19T16:20:34;5.73;;;2.53;;
73852;SDS011;62191;51.548;5.688;2023-01-19T16:40:09;8.33;;;4.67;;
73852;SDS011;62191;51.548;5.688;2023-01-19T16:42:36;7.93;;;4.07;;
73852;SDS011;62191;51.548;5.688;2023-01-19T16:45:05;7.00;;;3.80;;
73852;SDS011;62191;51.548;5.688;2023-01-19T16:47:32;7.37;;;3.47;;
73852;SDS011;62191;51.548;5.688;2023-01-19T16:50:00;3.60;;;2.80;;
73852;SDS011;62191;51.548;5.688;2023-01-19T16:52:27;4.40;;;3.73;;
73852;SDS011;62191;51.548;5.688;2023-01-19T16:54:54;7.40;;;2.97;;
73852;SDS011;62191;51.548;5.688;2023-01-19T16:57:22;6.93;;;3.57;;
73852;SDS011;62191;51.548;5.688;2023-01-19T16:59:49;7.77;;;3.93;;
73852;SDS011;62191;51.548;5.688;2023-01-19T17:02:16;4.70;;;4.23;;
73852;SDS011;62191;51.548;5.688;2023-01-19T17:14:32;6.20;;;4.97;;
73852;SDS011;62191;51.548;5.688;2023-01-19T17:16:59;5.90;;;3.00;;
73852;SDS011;62191;51.548;5.688;2023-01-19T17:39:03;6.37;;;4.77;;
73852;SDS011;62191;51.548;5.688;2023-01-19T17:41:32;9.30;;;4.20;;
73852;SDS011;62191;51.548;5.688;2023-01-19T17:44:01;4.70;;;3.67;;
73852;SDS011;62191;51.548;5.688;2023-01-19T17:53:50;6.57;;;5.87;;
73852;SDS011;62191;51.548;5.688;2023-01-19T18:35:31;6.80;;;5.60;;
73852;SDS011;62191;51.548;5.688;2023-01-19T18:38:00;5.77;;;5.03;;
73852;SDS011;62191;51.548;5.688;2023-01-19T18:40:27;8.03;;;5.57;;
73852;SDS011;62191;51.548;5.688;2023-01-19T18:42:55;5.10;;;3.63;;
73852;SDS011;62191;51.548;5.688;2023-01-19T18:45:22;3.63;;;3.33;;
73852;SDS011;62191;51.548;5.688;2023-01-19T18:47:49;6.67;;;3.97;;
73852;SDS011;62191;51.548;5.688;2023-01-19T18:50:17;5.50;;;3.93;;
73852;SDS011;62191;51.548;5.688;2023-01-19T18:52:45;4.73;;;3.70;;
73852;SDS011;62191;51.548;5.688;2023-01-19T18:55:13;8.73;;;4.53;;
73852;SDS011;62191;51.548;5.688;2023-01-19T18:57:40;8.27;;;4.23;;
73852;SDS011;62191;51.548;5.688;2023-01-19T19:00:08;6.97;;;5.27;;
73852;SDS011;62191;51.548;5.688;2023-01-19T19:02:35;5.30;;;4.90;;
73852;SDS011;62191;51.548;5.688;2023-01-19T19:05:03;12.33;;;5.50;;
73852;SDS011;62191;51.548;5.688;2023-01-19T19:07:30;9.17;;;5.37;;
73852;SDS011;62191;51.548;5.688;2023-01-19T19:09:58;7.90;;;5.47;;
73852;SDS011;62191;51.548;5.688;2023-01-19T19:12:25;6.80;;;4.53;;
73852;SDS011;62191;51.548;5.688;2023-01-19T19:14:52;10.97;;;5.80;;
73852;SDS011;62191;51.548;5.688;2023-01-19T19:17:19;5.27;;;3.83;;
73852;SDS011;62191;51.548;5.688;2023-01-19T19:19:47;7.27;;;4.37;;
73852;SDS011;62191;51.548;5.688;2023-01-19T19:22:14;6.20;;;4.73;;
73852;SDS011;62191;51.548;5.688;2023-01-19T19:24:41;12.00;;;7.80;;
73852;SDS011;62191;51.548;5.688;2023-01-19T19:27:09;6.27;;;5.07;;
73852;SDS011;62191;51.548;5.688;2023-01-19T19:29:38;8.70;;;5.63;;
73852;SDS011;62191;51.548;5.688;2023-01-19T19:32:07;7.67;;;6.17;;
73852;SDS011;62191;51.548;5.688;2023-01-19T19:34:35;6.13;;;5.47;;
73852;SDS011;62191;51.548;5.688;2023-01-19T19:37:02;5.97;;;5.37;;
73852;SDS011;62191;51.548;5.688;2023-01-19T19:39:29;6.07;;;4.67;;
73852;SDS011;62191;51.548;5.688;2023-01-19T19:41:56;10.03;;;5.73;;
73852;SDS011;62191;51.548;5.688;2023-01-19T19:44:24;5.47;;;4.83;;
73852;SDS011;62191;51.548;5.688;2023-01-19T19:46:51;12.33;;;5.27;;
73852;SDS011;62191;51.548;5.688;2023-01-19T19:49:21;5.47;;;4.60;;
73852;SDS011;62191;51.548;5.688;2023-01-19T19:51:48;7.17;;;4.57;;
73852;SDS011;62191;51.548;5.688;2023-01-19T19:54:15;7.37;;;4.77;;
73852;SDS011;62191;51.548;5.688;2023-01-19T19:56:43;6.03;;;4.93;;
73852;SDS011;62191;51.548;5.688;2023-01-19T19:59:10;4.57;;;3.77;;
73852;SDS011;62191;51.548;5.688;2023-01-19T20:01:37;7.10;;;5.73;;
73852;SDS011;62191;51.548;5.688;2023-01-19T20:04:06;8.80;;;5.93;;
73852;SDS011;62191;51.548;5.688;2023-01-19T20:06:34;11.60;;;6.10;;
73852;SDS011;62191;51.548;5.688;2023-01-19T20:09:04;7.50;;;3.93;;
73852;SDS011;62191;51.548;5.688;2023-01-19T20:11:33;6.67;;;5.10;;
73852;SDS011;62191;51.548;5.688;2023-01-19T20:14:04;10.63;;;5.93;;
73852;SDS011;62191;51.548;5.688;2023-01-19T20:16:32;8.60;;;6.63;;
73852;SDS011;62191;51.548;5.688;2023-01-19T20:19:00;5.67;;;4.23;;
73852;SDS011;62191;51.548;5.688;2023-01-19T20:21:34;4.90;;;4.33;;
73852;SDS011;62191;51.548;5.688;2023-01-19T20:24:04;6.03;;;5.20;;
73852;SDS011;62191;51.548;5.688;2023-01-19T20:26:33;8.97;;;4.83;;
73852;SDS011;62191;51.548;5.688;2023-01-19T20:29:03;7.17;;;4.50;;
73852;SDS011;62191;51.548;5.688;2023-01-19T20:31:36;4.70;;;3.80;;
73852;SDS011;62191;51.548;5.688;2023-01-19T20:36:32;6.40;;;4.60;;
73852;SDS011;62191;51.548;5.688;2023-01-19T20:39:00;10.97;;;6.50;;
73852;SDS011;62191;51.548;5.688;2023-01-19T20:41:29;6.13;;;4.43;;
73852;SDS011;62191;51.548;5.688;2023-01-19T20:43:56;5.80;;;5.20;;
73852;SDS011;62191;51.548;5.688;2023-01-19T20:53:45;4.70;;;4.20;;